Sumisemaru No.5 — JE3162 — position and weather

sailwx.info

Track history (hours):
 
Tides and Currents Weather Stations Pressure Air Temp Water Temp Dewpoint Dewpoint Depression Visibility Wind Speed Wind Dir Waves Ship Positions

Sumisemaru No.5

Last reported at 2017-Jun-12 09:04 UTC. Time now 2017-Jun-23 00:11 UTC.
Position N 35°18' E 139°44'.
Warning: this ship's position is 10 days out of date.

Length 96 m; draft 6.1 m.

Type: Cargo ship. MMSI: 431700423.

Date/timePositionNaut miles runAvg speedWind from/ knotsBaromVisibWave heightAir tempDewpointWater temp
2017-Jun-12 09:04N 35°18' E 139°44'211.9
2017-Jun-12 08:52N 35°20' E 139°43'412.1
2017-Jun-12 08:31N 35°24' E 139°43'612.2
2017-Jun-12 08:00N 35°28' E 139°49'510.5
2017-Jun-12 07:30N 35°33' E 139°50'611.4
2017-Jun-12 07:01N 35°38' E 139°46'0 0.3
2017-Jun-12 06:29N 35°38' E 139°46'0 0.0
2017-Jun-12 05:59N 35°38' E 139°46'0 0.0
2017-Jun-12 05:26N 35°38' E 139°46'0 0.0
2017-Jun-12 04:59N 35°38' E 139°46'0 0.0
2017-Jun-12 04:29N 35°38' E 139°46'0 0.0
2017-Jun-12 03:56N 35°38' E 139°46'0 0.0
2017-Jun-12 03:26N 35°38' E 139°46'0 0.0
2017-Jun-12 02:50N 35°38' E 139°46'0 0.0
2017-Jun-12 02:26N 35°38' E 139°46'0 0.0
2017-Jun-12 01:59N 35°38' E 139°46'0 0.0
2017-Jun-12 01:26N 35°38' E 139°46'0 0.0
2017-Jun-12 00:59N 35°38' E 139°46'0 0.1
2017-Jun-12 00:29N 35°38' E 139°45'0 0.1
2017-Jun-11 23:59N 35°38' E 139°46'0 0.0
2017-Jun-11 23:26N 35°38' E 139°46'0 0.0
2017-Jun-11 22:59N 35°38' E 139°46'2 4.9
2017-Jun-11 22:30N 35°36' E 139°47'4 7.8
2017-Jun-11 22:00N 35°33' E 139°51'2 0.8
2017-Jun-11 19:35N 35°33' E 139°53'0 0.1
2017-Jun-11 19:29N 35°34' E 139°53'0 0.2
2017-Jun-11 18:58N 35°34' E 139°53'3 6.1
2017-Jun-11 18:30N 35°31' E 139°52'611.4
2017-Jun-11 18:00N 35°26' E 139°48'611.7
2017-Jun-11 17:30N 35°21' E 139°45'611.0
2017-Jun-11 16:59N 35°15' E 139°47'611.8
2017-Jun-11 16:30N 35°10' E 139°46'612.0
2017-Jun-11 16:00N 35°04' E 139°44'611.6
2017-Jun-11 15:30N 35°00' E 139°39'712.7
2017-Jun-11 14:59N 34°57' E 139°32'23110.6
2017-Jun-10 17:11N 34°07' E 134°58'213.0
2017-Jun-10 17:00N 34°10' E 134°58'1113.2
2017-Jun-10 16:09N 34°21' E 134°60'512.6
2017-Jun-10 15:47N 34°26' E 135°00'413.2
2017-Jun-10 15:29N 34°29' E 135°01'612.1
2017-Jun-10 15:00N 34°35' E 135°03'1110.2
2017-Jun-10 13:58N 34°38' E 134°51'1 0.1
2017-Jun-09 15:35N 34°38' E 134°49'112.4
2017-Jun-09 15:30N 34°38' E 134°50'612.1
2017-Jun-09 15:00N 34°38' E 134°58'713.0
2017-Jun-09 14:30N 34°36' E 135°05'1312.9
2017-Jun-09 13:30N 34°37' E 135°21'611.1
2017-Jun-09 13:00N 34°40' E 135°27'0 0.1
2017-Jun-09 12:27N 34°40' E 135°27'0 0.0
2017-Jun-09 11:57N 34°40' E 135°27'0 0.0
2017-Jun-09 11:27N 34°40' E 135°27'0 0.0
2017-Jun-09 10:57N 34°40' E 135°27'0 0.0
2017-Jun-09 10:27N 34°40' E 135°27'0 0.0
2017-Jun-09 09:57N 34°40' E 135°27'0 0.0
2017-Jun-09 09:27N 34°40' E 135°27'0 0.0
2017-Jun-09 08:57N 34°40' E 135°27'0 0.0
2017-Jun-09 08:27N 34°40' E 135°27'0 0.0
2017-Jun-09 07:57N 34°40' E 135°27'0 0.0
2017-Jun-09 07:15N 34°40' E 135°27'0 0.0
2017-Jun-09 06:45N 34°40' E 135°27'0 0.0
2017-Jun-09 06:27N 34°40' E 135°27'0 0.0
2017-Jun-09 05:57N 34°40' E 135°27'0 0.0
2017-Jun-09 05:27N 34°40' E 135°27'0 0.0
2017-Jun-09 04:57N 34°40' E 135°27'0 0.0
2017-Jun-09 04:27N 34°40' E 135°27'0 0.0
2017-Jun-09 03:57N 34°40' E 135°27'0 0.0
2017-Jun-09 03:27N 34°40' E 135°27'0 0.0
2017-Jun-09 02:57N 34°40' E 135°27'0 0.0
2017-Jun-09 02:21N 34°40' E 135°27'0 0.0
2017-Jun-09 01:57N 34°40' E 135°27'0 0.1
2017-Jun-09 01:14N 34°40' E 135°27'0 1.3
2017-Jun-09 01:00N 34°40' E 135°26'1 2.4
2017-Jun-09 00:30N 34°39' E 135°25'5 9.7
2017-Jun-09 00:00N 34°36' E 135°20'1 1.2
2017-Jun-08 23:04N 34°36' E 135°19'0 0.0
2017-Jun-08 22:52N 34°36' E 135°19'0 0.0
2017-Jun-08 22:28N 34°36' E 135°19'0 0.1
2017-Jun-08 21:58N 34°36' E 135°19'0 0.0
2017-Jun-08 21:16N 34°36' E 135°19'0 0.2
2017-Jun-08 20:58N 34°36' E 135°19'0 0.0
2017-Jun-08 20:28N 34°36' E 135°19'0 0.0
2017-Jun-08 17:16N 34°36' E 135°19'0 0.1
2017-Jun-08 16:16N 34°36' E 135°19'0 1.2
2017-Jun-08 16:00N 34°36' E 135°19'510.7
2017-Jun-08 15:30N 34°35' E 135°12'612.7
2017-Jun-08 15:00N 34°35' E 135°05'711.7
2017-Jun-08 14:26N 34°36' E 134°57'1312.0
2017-Jun-08 13:21N 34°40' E 134°42'10 0.3
2017-Jun-07 05:30N 34°37' E 134°54'611.2
2017-Jun-07 04:57N 34°37' E 135°01'4 9.8
2017-Jun-07 04:30N 34°35' E 135°06'613.1
2017-Jun-07 04:01N 34°36' E 135°14'713.2
2017-Jun-07 03:31N 34°37' E 135°22'5 9.3
2017-Jun-07 03:00N 34°40' E 135°27'0 0.0
2017-Jun-07 01:29N 34°40' E 135°27'0 0.0
2017-Jun-07 00:59N 34°40' E 135°27'0 0.0
2017-Jun-07 00:29N 34°40' E 135°27'0 0.0
2017-Jun-06 23:41N 34°40' E 135°27'0 0.0
2017-Jun-06 23:17N 34°40' E 135°27'0 0.0
2017-Jun-06 22:59N 34°40' E 135°27'0 0.0
2017-Jun-06 22:29N 34°40' E 135°27'0 0.0
2017-Jun-06 21:59N 34°40' E 135°27'0 0.0
2017-Jun-06 21:29N 34°40' E 135°27'0 0.0
2017-Jun-06 20:53N 34°40' E 135°27'0 0.0
2017-Jun-06 20:29N 34°40' E 135°27'0 0.0
2017-Jun-06 19:59N 34°40' E 135°27'0 0.0
2017-Jun-06 19:29N 34°40' E 135°27'0 0.0
2017-Jun-06 18:59N 34°40' E 135°27'0 0.0
2017-Jun-06 18:29N 34°40' E 135°27'0 0.0
2017-Jun-06 17:53N 34°40' E 135°27'0 0.0
2017-Jun-06 17:29N 34°40' E 135°27'0 0.0
2017-Jun-06 16:59N 34°40' E 135°27'0 0.0
2017-Jun-06 16:23N 34°40' E 135°27'0 0.0
2017-Jun-06 15:59N 34°40' E 135°27'0 0.0
2017-Jun-06 15:29N 34°40' E 135°27'0 0.0
2017-Jun-06 14:59N 34°40' E 135°27'0 0.0
2017-Jun-06 14:29N 34°40' E 135°27'0 0.0
2017-Jun-06 13:29N 34°40' E 135°27'0 0.0
2017-Jun-06 12:59N 34°40' E 135°27'0 0.0
2017-Jun-06 12:23N 34°40' E 135°27'0 0.0
2017-Jun-06 11:59N 34°40' E 135°27'0 0.0
2017-Jun-06 11:29N 34°40' E 135°27'0 0.0
2017-Jun-06 10:59N 34°40' E 135°27'0 0.0
2017-Jun-06 10:29N 34°40' E 135°27'0 0.0
2017-Jun-06 09:59N 34°40' E 135°27'0 0.0
2017-Jun-06 09:11N 34°40' E 135°27'0 0.0
2017-Jun-06 08:59N 34°40' E 135°27'0 0.0
2017-Jun-06 08:23N 34°40' E 135°27'0 0.0
2017-Jun-06 07:59N 34°40' E 135°27'0 0.9
2017-Jun-06 07:27N 34°40' E 135°26'2 5.2
2017-Jun-06 07:00N 34°38' E 135°24'5 9.5
2017-Jun-06 06:30N 34°36' E 135°19'1 1.2
2017-Jun-06 05:44N 34°36' E 135°18'0 0.0
2017-Jun-06 05:27N 34°36' E 135°18'0 0.0
2017-Jun-06 04:56N 34°36' E 135°18'0 0.0
2017-Jun-06 04:15N 34°36' E 135°18'0 0.0
2017-Jun-06 03:56N 34°36' E 135°18'0 0.0
2017-Jun-06 03:26N 34°36' E 135°18'0 0.0
2017-Jun-06 02:56N 34°36' E 135°18'0 0.0
2017-Jun-06 02:14N 34°36' E 135°18'0 0.0
2017-Jun-06 01:56N 34°36' E 135°18'0 0.1
2017-Jun-06 01:26N 34°36' E 135°18'0 0.0
2017-Jun-06 00:57N 34°36' E 135°18'0 0.0
2017-Jun-06 00:13N 34°36' E 135°18'0 0.0
2017-Jun-05 23:55N 34°36' E 135°18'0 0.1
2017-Jun-05 23:01N 34°36' E 135°18'0 0.0
2017-Jun-05 22:43N 34°36' E 135°18'0 0.1
2017-Jun-05 22:19N 34°36' E 135°18'0 0.0
2017-Jun-05 21:55N 34°36' E 135°18'0 0.0
2017-Jun-05 20:25N 34°36' E 135°18'0 0.0
2017-Jun-05 19:49N 34°36' E 135°18'0 0.0
2017-Jun-05 19:25N 34°36' E 135°18'0 0.0
2017-Jun-05 18:49N 34°36' E 135°18'0 0.0
2017-Jun-05 18:19N 34°36' E 135°18'0 0.0
2017-Jun-05 17:37N 34°36' E 135°18'0 0.1
2017-Jun-05 17:25N 34°36' E 135°18'0 0.0
2017-Jun-05 16:49N 34°36' E 135°18'0 0.0
2017-Jun-05 16:25N 34°36' E 135°18'0 0.0
2017-Jun-05 15:55N 34°36' E 135°18'0 0.0
2017-Jun-05 15:25N 34°36' E 135°18'0 1.1
2017-Jun-05 14:59N 34°35' E 135°18'611.7
2017-Jun-05 14:30N 34°31' E 135°13'1211.2
2017-Jun-05 13:28N 34°22' E 135°04'710.8
2017-Jun-05 12:48N 34°16' E 134°59'311.0
2017-Jun-05 12:30N 34°15' E 135°03'4 8.6
2017-Jun-05 12:01N 34°14' E 135°08'0 0.0
2017-Jun-05 11:20N 34°14' E 135°08'0 0.0
2017-Jun-05 10:50N 34°14' E 135°08'0 0.0
2017-Jun-05 09:41N 34°14' E 135°08'0 0.0
2017-Jun-05 09:02N 34°14' E 135°08'0 0.0
2017-Jun-05 08:44N 34°14' E 135°08'0 0.0
2017-Jun-05 08:29N 34°14' E 135°08'0 0.0
2017-Jun-05 07:44N 34°14' E 135°08'0 0.2
2017-Jun-05 07:26N 34°14' E 135°08'0 0.1
2017-Jun-05 06:59N 34°14' E 135°08'0 0.0
2017-Jun-05 06:29N 34°14' E 135°08'0 0.0
2017-Jun-05 05:56N 34°14' E 135°08'0 0.0
2017-Jun-05 05:30N 34°14' E 135°08'0 0.0
2017-Jun-05 04:23N 34°14' E 135°08'0 0.0
2017-Jun-05 02:44N 34°14' E 135°08'0 0.0
2017-Jun-05 02:23N 34°14' E 135°08'0 0.0
2017-Jun-05 01:11N 34°14' E 135°08'0 0.0
2017-Jun-04 23:59N 34°14' E 135°08'0 0.0
2017-Jun-04 23:29N 34°14' E 135°08'0 0.0
2017-Jun-04 22:59N 34°14' E 135°08'0 0.0
2017-Jun-04 22:29N 34°14' E 135°08'0 0.1
2017-Jun-04 21:59N 34°14' E 135°08'0 0.1
2017-Jun-04 21:29N 34°14' E 135°08'0 0.7
2017-Jun-04 21:01N 34°14' E 135°07'2 2.9
2017-Jun-04 20:28N 34°13' E 135°07'0 0.1
2017-Jun-04 19:58N 34°13' E 135°07'0 0.1
2017-Jun-04 19:25N 34°13' E 135°07'0 0.1
2017-Jun-04 18:58N 34°13' E 135°07'0 0.0
2017-Jun-04 18:28N 34°13' E 135°07'0 0.0
2017-Jun-04 17:58N 34°13' E 135°07'0 0.0
2017-Jun-04 17:28N 34°13' E 135°07'0 0.1
2017-Jun-04 16:58N 34°13' E 135°07'0 0.0
2017-Jun-04 16:28N 34°13' E 135°07'0 0.0
2017-Jun-04 15:49N 34°13' E 135°07'0 0.0
2017-Jun-04 15:25N 34°13' E 135°07'0 0.1
2017-Jun-04 14:58N 34°13' E 135°07'0 0.0
2017-Jun-04 14:28N 34°13' E 135°07'0 0.1
2017-Jun-04 13:28N 34°13' E 135°07'0 0.0
2017-Jun-04 12:55N 34°13' E 135°07'0 0.0
2017-Jun-04 12:25N 34°13' E 135°07'0 0.0
2017-Jun-04 11:46N 34°13' E 135°07'0 0.0
2017-Jun-04 11:25N 34°13' E 135°07'0 0.0
2017-Jun-04 10:58N 34°13' E 135°07'0 0.0
2017-Jun-04 10:28N 34°13' E 135°07'0 0.0
2017-Jun-04 09:58N 34°13' E 135°07'0 0.0
2017-Jun-04 09:19N 34°13' E 135°07'0 0.0
2017-Jun-04 08:58N 34°13' E 135°07'0 0.1
2017-Jun-04 08:28N 34°13' E 135°07'0 0.0
2017-Jun-04 07:46N 34°13' E 135°07'0 0.0
2017-Jun-04 07:28N 34°13' E 135°07'0 0.0
2017-Jun-04 06:58N 34°13' E 135°07'0 0.0
2017-Jun-04 06:28N 34°13' E 135°07'0 0.0
2017-Jun-04 05:58N 34°13' E 135°07'0 0.0
2017-Jun-04 05:28N 34°13' E 135°07'0 0.1
2017-Jun-04 04:58N 34°13' E 135°07'0 0.0
2017-Jun-04 04:28N 34°13' E 135°07'0 0.1
2017-Jun-04 03:58N 34°13' E 135°07'0 0.0
2017-Jun-04 03:28N 34°13' E 135°07'0 0.0
2017-Jun-04 02:58N 34°13' E 135°07'0 0.0
2017-Jun-04 02:28N 34°13' E 135°07'0 0.1
2017-Jun-04 01:58N 34°13' E 135°07'0 0.0
2017-Jun-04 01:28N 34°13' E 135°07'0 0.1
2017-Jun-04 00:58N 34°13' E 135°07'0 0.1
2017-Jun-04 00:13N 34°13' E 135°07'0 0.0
2017-Jun-03 23:55N 34°13' E 135°07'0 0.0
2017-Jun-03 23:28N 34°13' E 135°07'0 0.0
2017-Jun-03 22:58N 34°13' E 135°07'0 0.0
2017-Jun-03 22:28N 34°13' E 135°07'0 0.0
2017-Jun-03 21:58N 34°13' E 135°07'0 0.0
2017-Jun-03 21:25N 34°13' E 135°07'0 0.0
2017-Jun-03 20:55N 34°13' E 135°07'0 0.0
2017-Jun-03 20:28N 34°13' E 135°07'0 0.0
2017-Jun-03 19:58N 34°13' E 135°07'0 0.0
2017-Jun-03 19:25N 34°13' E 135°07'0 0.1
2017-Jun-03 18:58N 34°13' E 135°07'0 0.1
2017-Jun-03 18:25N 34°13' E 135°07'0 0.0
2017-Jun-03 17:55N 34°13' E 135°07'0 0.1
2017-Jun-03 17:28N 34°13' E 135°07'0 0.1
2017-Jun-03 16:58N 34°13' E 135°07'0 0.0
2017-Jun-03 16:25N 34°13' E 135°07'0 0.0
2017-Jun-03 15:58N 34°13' E 135°07'0 0.0
2017-Jun-03 15:22N 34°13' E 135°07'0 0.0
2017-Jun-03 14:58N 34°13' E 135°07'0 0.1
2017-Jun-03 14:28N 34°13' E 135°07'0 0.0
2017-Jun-03 13:28N 34°13' E 135°07'0 0.0
2017-Jun-03 12:58N 34°13' E 135°07'0 0.0
2017-Jun-03 12:28N 34°13' E 135°07'0 0.1
2017-Jun-03 11:55N 34°13' E 135°07'0 0.0
2017-Jun-03 11:28N 34°13' E 135°07'0 0.0
2017-Jun-03 10:52N 34°13' E 135°07'0 0.0
2017-Jun-03 10:28N 34°13' E 135°07'0 0.0
2017-Jun-03 09:58N 34°13' E 135°07'0 0.0
2017-Jun-03 09:25N 34°13' E 135°07'0 0.0
2017-Jun-03 08:58N 34°13' E 135°07'0 0.0
2017-Jun-03 08:28N 34°13' E 135°07'0 0.0
2017-Jun-03 07:58N 34°13' E 135°07'0 0.0
2017-Jun-03 07:25N 34°13' E 135°07'0 0.1
2017-Jun-03 06:40N 34°13' E 135°07'0 0.0
2017-Jun-03 06:28N 34°13' E 135°07'0 0.0
2017-Jun-03 05:58N 34°13' E 135°07'0 0.1
2017-Jun-03 05:28N 34°13' E 135°07'0 0.0
2017-Jun-03 04:58N 34°13' E 135°07'0 0.1
2017-Jun-03 04:28N 34°13' E 135°07'0 0.0
2017-Jun-03 03:58N 34°13' E 135°07'0 0.0
2017-Jun-03 03:28N 34°13' E 135°07'0 0.0
2017-Jun-03 02:58N 34°13' E 135°07'0 0.0
2017-Jun-03 02:28N 34°13' E 135°07'0 0.0
2017-Jun-03 01:58N 34°13' E 135°07'0 0.0
2017-Jun-03 01:28N 34°13' E 135°07'0 0.1
2017-Jun-03 00:58N 34°13' E 135°07'0 0.0
2017-Jun-03 00:28N 34°13' E 135°07'0 0.0
2017-Jun-02 23:55N 34°13' E 135°07'0 0.0
2017-Jun-02 23:22N 34°13' E 135°07'0 0.0
2017-Jun-02 22:58N 34°13' E 135°07'0 0.0
2017-Jun-02 22:25N 34°13' E 135°07'0 0.1
2017-Jun-02 21:55N 34°13' E 135°07'0 0.0
2017-Jun-02 21:28N 34°13' E 135°07'0 0.0
2017-Jun-02 20:58N 34°13' E 135°07'0 0.0
2017-Jun-02 20:28N 34°13' E 135°07'0 0.0
2017-Jun-02 19:58N 34°13' E 135°07'0 0.0
2017-Jun-02 19:28N 34°13' E 135°07'0 0.0
2017-Jun-02 18:58N 34°13' E 135°07'0 0.0
2017-Jun-02 18:28N 34°13' E 135°07'0 0.1
2017-Jun-02 17:58N 34°13' E 135°07'0 0.0
2017-Jun-02 17:28N 34°13' E 135°07'0 0.1
2017-Jun-02 17:01N 34°13' E 135°07'0 0.0
2017-Jun-02 16:28N 34°13' E 135°07'0 0.0
2017-Jun-02 15:55N 34°13' E 135°07'0 0.0
2017-Jun-02 15:28N 34°13' E 135°07'0 0.0
2017-Jun-02 14:58N 34°13' E 135°07'0 0.1
2017-Jun-02 13:58N 34°13' E 135°07'1 3.3
2017-Jun-02 13:30N 34°11' E 135°06'611.6
2017-Jun-02 13:00N 34°06' E 135°03'  
Track history (hours):
 
Tides and Currents Weather Stations Pressure Air Temp Water Temp Dewpoint Dewpoint Depression Visibility Wind Speed Wind Dir Waves Ship Positions

Sumisemaru No.5

Last reported at 2017-Jun-12 09:04 UTC. Time now 2017-Jun-23 00:11 UTC.
Position N 35°18' E 139°44'.
Warning: this ship's position is 10 days out of date.

Length 96 m; draft 6.1 m.

Type: Cargo ship. MMSI: 431700423.

Date/timePositionNaut miles runAvg speedWind from/ knotsBaromVisibWave heightAir tempDewpointWater temp
2017-Jun-12 09:04N 35°18' E 139°44'211.9
2017-Jun-12 08:52N 35°20' E 139°43'412.1
2017-Jun-12 08:31N 35°24' E 139°43'612.2
2017-Jun-12 08:00N 35°28' E 139°49'510.5
2017-Jun-12 07:30N 35°33' E 139°50'611.4
2017-Jun-12 07:01N 35°38' E 139°46'0 0.3
2017-Jun-12 06:29N 35°38' E 139°46'0 0.0
2017-Jun-12 05:59N 35°38' E 139°46'0 0.0
2017-Jun-12 05:26N 35°38' E 139°46'0 0.0
2017-Jun-12 04:59N 35°38' E 139°46'0 0.0
2017-Jun-12 04:29N 35°38' E 139°46'0 0.0
2017-Jun-12 03:56N 35°38' E 139°46'0 0.0
2017-Jun-12 03:26N 35°38' E 139°46'0 0.0
2017-Jun-12 02:50N 35°38' E 139°46'0 0.0
2017-Jun-12 02:26N 35°38' E 139°46'0 0.0
2017-Jun-12 01:59N 35°38' E 139°46'0 0.0
2017-Jun-12 01:26N 35°38' E 139°46'0 0.0
2017-Jun-12 00:59N 35°38' E 139°46'0 0.1
2017-Jun-12 00:29N 35°38' E 139°45'0 0.1
2017-Jun-11 23:59N 35°38' E 139°46'0 0.0
2017-Jun-11 23:26N 35°38' E 139°46'0 0.0
2017-Jun-11 22:59N 35°38' E 139°46'2 4.9
2017-Jun-11 22:30N 35°36' E 139°47'4 7.8
2017-Jun-11 22:00N 35°33' E 139°51'2 0.8
2017-Jun-11 19:35N 35°33' E 139°53'0 0.1
2017-Jun-11 19:29N 35°34' E 139°53'0 0.2
2017-Jun-11 18:58N 35°34' E 139°53'3 6.1
2017-Jun-11 18:30N 35°31' E 139°52'611.4
2017-Jun-11 18:00N 35°26' E 139°48'611.7
2017-Jun-11 17:30N 35°21' E 139°45'611.0
2017-Jun-11 16:59N 35°15' E 139°47'611.8
2017-Jun-11 16:30N 35°10' E 139°46'612.0
2017-Jun-11 16:00N 35°04' E 139°44'611.6
2017-Jun-11 15:30N 35°00' E 139°39'712.7
2017-Jun-11 14:59N 34°57' E 139°32'23110.6
2017-Jun-10 17:11N 34°07' E 134°58'213.0
2017-Jun-10 17:00N 34°10' E 134°58'1113.2
2017-Jun-10 16:09N 34°21' E 134°60'512.6
2017-Jun-10 15:47N 34°26' E 135°00'413.2
2017-Jun-10 15:29N 34°29' E 135°01'612.1
2017-Jun-10 15:00N 34°35' E 135°03'1110.2
2017-Jun-10 13:58N 34°38' E 134°51'1 0.1
2017-Jun-09 15:35N 34°38' E 134°49'112.4
2017-Jun-09 15:30N 34°38' E 134°50'612.1
2017-Jun-09 15:00N 34°38' E 134°58'713.0
2017-Jun-09 14:30N 34°36' E 135°05'1312.9
2017-Jun-09 13:30N 34°37' E 135°21'611.1
2017-Jun-09 13:00N 34°40' E 135°27'0 0.1
2017-Jun-09 12:27N 34°40' E 135°27'0 0.0
2017-Jun-09 11:57N 34°40' E 135°27'0 0.0
2017-Jun-09 11:27N 34°40' E 135°27'0 0.0
2017-Jun-09 10:57N 34°40' E 135°27'0 0.0
2017-Jun-09 10:27N 34°40' E 135°27'0 0.0
2017-Jun-09 09:57N 34°40' E 135°27'0 0.0
2017-Jun-09 09:27N 34°40' E 135°27'0 0.0
2017-Jun-09 08:57N 34°40' E 135°27'0 0.0
2017-Jun-09 08:27N 34°40' E 135°27'0 0.0
2017-Jun-09 07:57N 34°40' E 135°27'0 0.0
2017-Jun-09 07:15N 34°40' E 135°27'0 0.0
2017-Jun-09 06:45N 34°40' E 135°27'0 0.0
2017-Jun-09 06:27N 34°40' E 135°27'0 0.0
2017-Jun-09 05:57N 34°40' E 135°27'0 0.0
2017-Jun-09 05:27N 34°40' E 135°27'0 0.0
2017-Jun-09 04:57N 34°40' E 135°27'0 0.0
2017-Jun-09 04:27N 34°40' E 135°27'0 0.0
2017-Jun-09 03:57N 34°40' E 135°27'0 0.0
2017-Jun-09 03:27N 34°40' E 135°27'0 0.0
2017-Jun-09 02:57N 34°40' E 135°27'0 0.0
2017-Jun-09 02:21N 34°40' E 135°27'0 0.0
2017-Jun-09 01:57N 34°40' E 135°27'0 0.1
2017-Jun-09 01:14N 34°40' E 135°27'0 1.3
2017-Jun-09 01:00N 34°40' E 135°26'1 2.4
2017-Jun-09 00:30N 34°39' E 135°25'5 9.7
2017-Jun-09 00:00N 34°36' E 135°20'1 1.2
2017-Jun-08 23:04N 34°36' E 135°19'0 0.0
2017-Jun-08 22:52N 34°36' E 135°19'0 0.0
2017-Jun-08 22:28N 34°36' E 135°19'0 0.1
2017-Jun-08 21:58N 34°36' E 135°19'0 0.0
2017-Jun-08 21:16N 34°36' E 135°19'0 0.2
2017-Jun-08 20:58N 34°36' E 135°19'0 0.0
2017-Jun-08 20:28N 34°36' E 135°19'0 0.0
2017-Jun-08 17:16N 34°36' E 135°19'0 0.1
2017-Jun-08 16:16N 34°36' E 135°19'0 1.2
2017-Jun-08 16:00N 34°36' E 135°19'510.7
2017-Jun-08 15:30N 34°35' E 135°12'612.7
2017-Jun-08 15:00N 34°35' E 135°05'711.7
2017-Jun-08 14:26N 34°36' E 134°57'1312.0
2017-Jun-08 13:21N 34°40' E 134°42'10 0.3
2017-Jun-07 05:30N 34°37' E 134°54'611.2
2017-Jun-07 04:57N 34°37' E 135°01'4 9.8
2017-Jun-07 04:30N 34°35' E 135°06'613.1
2017-Jun-07 04:01N 34°36' E 135°14'713.2
2017-Jun-07 03:31N 34°37' E 135°22'5 9.3
2017-Jun-07 03:00N 34°40' E 135°27'0 0.0
2017-Jun-07 01:29N 34°40' E 135°27'0 0.0
2017-Jun-07 00:59N 34°40' E 135°27'0 0.0
2017-Jun-07 00:29N 34°40' E 135°27'0 0.0
2017-Jun-06 23:41N 34°40' E 135°27'0 0.0
2017-Jun-06 23:17N 34°40' E 135°27'0 0.0
2017-Jun-06 22:59N 34°40' E 135°27'0 0.0
2017-Jun-06 22:29N 34°40' E 135°27'0 0.0
2017-Jun-06 21:59N 34°40' E 135°27'0 0.0
2017-Jun-06 21:29N 34°40' E 135°27'0 0.0
2017-Jun-06 20:53N 34°40' E 135°27'0 0.0
2017-Jun-06 20:29N 34°40' E 135°27'0 0.0
2017-Jun-06 19:59N 34°40' E 135°27'0 0.0
2017-Jun-06 19:29N 34°40' E 135°27'0 0.0
2017-Jun-06 18:59N 34°40' E 135°27'0 0.0
2017-Jun-06 18:29N 34°40' E 135°27'0 0.0
2017-Jun-06 17:53N 34°40' E 135°27'0 0.0
2017-Jun-06 17:29N 34°40' E 135°27'0 0.0
2017-Jun-06 16:59N 34°40' E 135°27'0 0.0
2017-Jun-06 16:23N 34°40' E 135°27'0 0.0
2017-Jun-06 15:59N 34°40' E 135°27'0 0.0
2017-Jun-06 15:29N 34°40' E 135°27'0 0.0
2017-Jun-06 14:59N 34°40' E 135°27'0 0.0
2017-Jun-06 14:29N 34°40' E 135°27'0 0.0
2017-Jun-06 13:29N 34°40' E 135°27'0 0.0
2017-Jun-06 12:59N 34°40' E 135°27'0 0.0
2017-Jun-06 12:23N 34°40' E 135°27'0 0.0
2017-Jun-06 11:59N 34°40' E 135°27'0 0.0
2017-Jun-06 11:29N 34°40' E 135°27'0 0.0
2017-Jun-06 10:59N 34°40' E 135°27'0 0.0
2017-Jun-06 10:29N 34°40' E 135°27'0 0.0
2017-Jun-06 09:59N 34°40' E 135°27'0 0.0
2017-Jun-06 09:11N 34°40' E 135°27'0 0.0
2017-Jun-06 08:59N 34°40' E 135°27'0 0.0
2017-Jun-06 08:23N 34°40' E 135°27'0 0.0
2017-Jun-06 07:59N 34°40' E 135°27'0 0.9
2017-Jun-06 07:27N 34°40' E 135°26'2 5.2
2017-Jun-06 07:00N 34°38' E 135°24'5 9.5
2017-Jun-06 06:30N 34°36' E 135°19'1 1.2
2017-Jun-06 05:44N 34°36' E 135°18'0 0.0
2017-Jun-06 05:27N 34°36' E 135°18'0 0.0
2017-Jun-06 04:56N 34°36' E 135°18'0 0.0
2017-Jun-06 04:15N 34°36' E 135°18'0 0.0
2017-Jun-06 03:56N 34°36' E 135°18'0 0.0
2017-Jun-06 03:26N 34°36' E 135°18'0 0.0
2017-Jun-06 02:56N 34°36' E 135°18'0 0.0
2017-Jun-06 02:14N 34°36' E 135°18'0 0.0
2017-Jun-06 01:56N 34°36' E 135°18'0 0.1
2017-Jun-06 01:26N 34°36' E 135°18'0 0.0
2017-Jun-06 00:57N 34°36' E 135°18'0 0.0
2017-Jun-06 00:13N 34°36' E 135°18'0 0.0
2017-Jun-05 23:55N 34°36' E 135°18'0 0.1
2017-Jun-05 23:01N 34°36' E 135°18'0 0.0
2017-Jun-05 22:43N 34°36' E 135°18'0 0.1
2017-Jun-05 22:19N 34°36' E 135°18'0 0.0
2017-Jun-05 21:55N 34°36' E 135°18'0 0.0
2017-Jun-05 20:25N 34°36' E 135°18'0 0.0
2017-Jun-05 19:49N 34°36' E 135°18'0 0.0
2017-Jun-05 19:25N 34°36' E 135°18'0 0.0
2017-Jun-05 18:49N 34°36' E 135°18'0 0.0
2017-Jun-05 18:19N 34°36' E 135°18'0 0.0
2017-Jun-05 17:37N 34°36' E 135°18'0 0.1
2017-Jun-05 17:25N 34°36' E 135°18'0 0.0
2017-Jun-05 16:49N 34°36' E 135°18'0 0.0
2017-Jun-05 16:25N 34°36' E 135°18'0 0.0
2017-Jun-05 15:55N 34°36' E 135°18'0 0.0
2017-Jun-05 15:25N 34°36' E 135°18'0 1.1
2017-Jun-05 14:59N 34°35' E 135°18'611.7
2017-Jun-05 14:30N 34°31' E 135°13'1211.2
2017-Jun-05 13:28N 34°22' E 135°04'710.8
2017-Jun-05 12:48N 34°16' E 134°59'311.0
2017-Jun-05 12:30N 34°15' E 135°03'4 8.6
2017-Jun-05 12:01N 34°14' E 135°08'0 0.0
2017-Jun-05 11:20N 34°14' E 135°08'0 0.0
2017-Jun-05 10:50N 34°14' E 135°08'0 0.0
2017-Jun-05 09:41N 34°14' E 135°08'0 0.0
2017-Jun-05 09:02N 34°14' E 135°08'0 0.0
2017-Jun-05 08:44N 34°14' E 135°08'0 0.0
2017-Jun-05 08:29N 34°14' E 135°08'0 0.0
2017-Jun-05 07:44N 34°14' E 135°08'0 0.2
2017-Jun-05 07:26N 34°14' E 135°08'0 0.1
2017-Jun-05 06:59N 34°14' E 135°08'0 0.0
2017-Jun-05 06:29N 34°14' E 135°08'0 0.0
2017-Jun-05 05:56N 34°14' E 135°08'0 0.0
2017-Jun-05 05:30N 34°14' E 135°08'0 0.0
2017-Jun-05 04:23N 34°14' E 135°08'0 0.0
2017-Jun-05 02:44N 34°14' E 135°08'0 0.0
2017-Jun-05 02:23N 34°14' E 135°08'0 0.0
2017-Jun-05 01:11N 34°14' E 135°08'0 0.0
2017-Jun-04 23:59N 34°14' E 135°08'0 0.0
2017-Jun-04 23:29N 34°14' E 135°08'0 0.0
2017-Jun-04 22:59N 34°14' E 135°08'0 0.0
2017-Jun-04 22:29N 34°14' E 135°08'0 0.1
2017-Jun-04 21:59N 34°14' E 135°08'0 0.1
2017-Jun-04 21:29N 34°14' E 135°08'0 0.7
2017-Jun-04 21:01N 34°14' E 135°07'2 2.9
2017-Jun-04 20:28N 34°13' E 135°07'0 0.1
2017-Jun-04 19:58N 34°13' E 135°07'0 0.1
2017-Jun-04 19:25N 34°13' E 135°07'0 0.1
2017-Jun-04 18:58N 34°13' E 135°07'0 0.0
2017-Jun-04 18:28N 34°13' E 135°07'0 0.0
2017-Jun-04 17:58N 34°13' E 135°07'0 0.0
2017-Jun-04 17:28N 34°13' E 135°07'0 0.1
2017-Jun-04 16:58N 34°13' E 135°07'0 0.0
2017-Jun-04 16:28N 34°13' E 135°07'0 0.0
2017-Jun-04 15:49N 34°13' E 135°07'0 0.0
2017-Jun-04 15:25N 34°13' E 135°07'0 0.1
2017-Jun-04 14:58N 34°13' E 135°07'0 0.0
2017-Jun-04 14:28N 34°13' E 135°07'0 0.1
2017-Jun-04 13:28N 34°13' E 135°07'0 0.0
2017-Jun-04 12:55N 34°13' E 135°07'0 0.0
2017-Jun-04 12:25N 34°13' E 135°07'0 0.0
2017-Jun-04 11:46N 34°13' E 135°07'0 0.0
2017-Jun-04 11:25N 34°13' E 135°07'0 0.0
2017-Jun-04 10:58N 34°13' E 135°07'0 0.0
2017-Jun-04 10:28N 34°13' E 135°07'0 0.0
2017-Jun-04 09:58N 34°13' E 135°07'0 0.0
2017-Jun-04 09:19N 34°13' E 135°07'0 0.0
2017-Jun-04 08:58N 34°13' E 135°07'0 0.1
2017-Jun-04 08:28N 34°13' E 135°07'0 0.0
2017-Jun-04 07:46N 34°13' E 135°07'0 0.0
2017-Jun-04 07:28N 34°13' E 135°07'0 0.0
2017-Jun-04 06:58N 34°13' E 135°07'0 0.0
2017-Jun-04 06:28N 34°13' E 135°07'0 0.0
2017-Jun-04 05:58N 34°13' E 135°07'0 0.0
2017-Jun-04 05:28N 34°13' E 135°07'0 0.1
2017-Jun-04 04:58N 34°13' E 135°07'0 0.0
2017-Jun-04 04:28N 34°13' E 135°07'0 0.1
2017-Jun-04 03:58N 34°13' E 135°07'0 0.0
2017-Jun-04 03:28N 34°13' E 135°07'0 0.0
2017-Jun-04 02:58N 34°13' E 135°07'0 0.0
2017-Jun-04 02:28N 34°13' E 135°07'0 0.1
2017-Jun-04 01:58N 34°13' E 135°07'0 0.0
2017-Jun-04 01:28N 34°13' E 135°07'0 0.1
2017-Jun-04 00:58N 34°13' E 135°07'0 0.1
2017-Jun-04 00:13N 34°13' E 135°07'0 0.0
2017-Jun-03 23:55N 34°13' E 135°07'0 0.0
2017-Jun-03 23:28N 34°13' E 135°07'0 0.0
2017-Jun-03 22:58N 34°13' E 135°07'0 0.0
2017-Jun-03 22:28N 34°13' E 135°07'0 0.0
2017-Jun-03 21:58N 34°13' E 135°07'0 0.0
2017-Jun-03 21:25N 34°13' E 135°07'0 0.0
2017-Jun-03 20:55N 34°13' E 135°07'0 0.0
2017-Jun-03 20:28N 34°13' E 135°07'0 0.0
2017-Jun-03 19:58N 34°13' E 135°07'0 0.0
2017-Jun-03 19:25N 34°13' E 135°07'0 0.1
2017-Jun-03 18:58N 34°13' E 135°07'0 0.1
2017-Jun-03 18:25N 34°13' E 135°07'0 0.0
2017-Jun-03 17:55N 34°13' E 135°07'0 0.1
2017-Jun-03 17:28N 34°13' E 135°07'0 0.1
2017-Jun-03 16:58N 34°13' E 135°07'0 0.0
2017-Jun-03 16:25N 34°13' E 135°07'0 0.0
2017-Jun-03 15:58N 34°13' E 135°07'0 0.0
2017-Jun-03 15:22N 34°13' E 135°07'0 0.0
2017-Jun-03 14:58N 34°13' E 135°07'0 0.1
2017-Jun-03 14:28N 34°13' E 135°07'0 0.0
2017-Jun-03 13:28N 34°13' E 135°07'0 0.0
2017-Jun-03 12:58N 34°13' E 135°07'0 0.0
2017-Jun-03 12:28N 34°13' E 135°07'0 0.1
2017-Jun-03 11:55N 34°13' E 135°07'0 0.0
2017-Jun-03 11:28N 34°13' E 135°07'0 0.0
2017-Jun-03 10:52N 34°13' E 135°07'0 0.0
2017-Jun-03 10:28N 34°13' E 135°07'0 0.0
2017-Jun-03 09:58N 34°13' E 135°07'0 0.0
2017-Jun-03 09:25N 34°13' E 135°07'0 0.0
2017-Jun-03 08:58N 34°13' E 135°07'0 0.0
2017-Jun-03 08:28N 34°13' E 135°07'0 0.0
2017-Jun-03 07:58N 34°13' E 135°07'0 0.0
2017-Jun-03 07:25N 34°13' E 135°07'0 0.1
2017-Jun-03 06:40N 34°13' E 135°07'0 0.0
2017-Jun-03 06:28N 34°13' E 135°07'0 0.0
2017-Jun-03 05:58N 34°13' E 135°07'0 0.1
2017-Jun-03 05:28N 34°13' E 135°07'0 0.0
2017-Jun-03 04:58N 34°13' E 135°07'0 0.1
2017-Jun-03 04:28N 34°13' E 135°07'0 0.0
2017-Jun-03 03:58N 34°13' E 135°07'0 0.0
2017-Jun-03 03:28N 34°13' E 135°07'0 0.0
2017-Jun-03 02:58N 34°13' E 135°07'0 0.0
2017-Jun-03 02:28N 34°13' E 135°07'0 0.0
2017-Jun-03 01:58N 34°13' E 135°07'0 0.0
2017-Jun-03 01:28N 34°13' E 135°07'0 0.1
2017-Jun-03 00:58N 34°13' E 135°07'0 0.0
2017-Jun-03 00:28N 34°13' E 135°07'0 0.0
2017-Jun-02 23:55N 34°13' E 135°07'0 0.0
2017-Jun-02 23:22N 34°13' E 135°07'0 0.0
2017-Jun-02 22:58N 34°13' E 135°07'0 0.0
2017-Jun-02 22:25N 34°13' E 135°07'0 0.1
2017-Jun-02 21:55N 34°13' E 135°07'0 0.0
2017-Jun-02 21:28N 34°13' E 135°07'0 0.0
2017-Jun-02 20:58N 34°13' E 135°07'0 0.0
2017-Jun-02 20:28N 34°13' E 135°07'0 0.0
2017-Jun-02 19:58N 34°13' E 135°07'0 0.0
2017-Jun-02 19:28N 34°13' E 135°07'0 0.0
2017-Jun-02 18:58N 34°13' E 135°07'0 0.0
2017-Jun-02 18:28N 34°13' E 135°07'0 0.1
2017-Jun-02 17:58N 34°13' E 135°07'0 0.0
2017-Jun-02 17:28N 34°13' E 135°07'0 0.1
2017-Jun-02 17:01N 34°13' E 135°07'0 0.0
2017-Jun-02 16:28N 34°13' E 135°07'0 0.0
2017-Jun-02 15:55N 34°13' E 135°07'0 0.0
2017-Jun-02 15:28N 34°13' E 135°07'0 0.0
2017-Jun-02 14:58N 34°13' E 135°07'0 0.1
2017-Jun-02 13:58N 34°13' E 135°07'1 3.3
2017-Jun-02 13:30N 34°11' E 135°06'611.6
2017-Jun-02 13:00N 34°06' E 135°03'  

Dump ship's entire track history